sensor_id;sensor_type;location;lat;lon;timestamp;P1;durP1;ratioP1;P2;durP2;ratioP2
5460;SDS011;2753;49.196;8.286;2022-12-20T00:02:13;77.47;;;33.50;;
5460;SDS011;2753;49.196;8.286;2022-12-20T00:04:38;81.33;;;37.90;;
5460;SDS011;2753;49.196;8.286;2022-12-20T00:07:04;72.97;;;33.90;;
5460;SDS011;2753;49.196;8.286;2022-12-20T00:09:30;74.53;;;35.90;;
5460;SDS011;2753;49.196;8.286;2022-12-20T00:11:55;80.27;;;33.77;;
5460;SDS011;2753;49.196;8.286;2022-12-20T00:14:21;76.97;;;33.40;;
5460;SDS011;2753;49.196;8.286;2022-12-20T00:16:46;77.87;;;34.20;;
5460;SDS011;2753;49.196;8.286;2022-12-20T00:19:12;79.33;;;35.63;;
5460;SDS011;2753;49.196;8.286;2022-12-20T00:21:38;79.47;;;34.47;;
5460;SDS011;2753;49.196;8.286;2022-12-20T00:24:04;77.87;;;36.10;;
5460;SDS011;2753;49.196;8.286;2022-12-20T00:26:30;82.37;;;35.77;;
5460;SDS011;2753;49.196;8.286;2022-12-20T00:28:57;76.23;;;34.60;;
5460;SDS011;2753;49.196;8.286;2022-12-20T00:31:24;89.73;;;36.27;;
5460;SDS011;2753;49.196;8.286;2022-12-20T00:33:52;131.17;;;47.87;;
5460;SDS011;2753;49.196;8.286;2022-12-20T00:36:19;98.93;;;40.50;;
5460;SDS011;2753;49.196;8.286;2022-12-20T00:38:47;75.13;;;35.27;;
5460;SDS011;2753;49.196;8.286;2022-12-20T00:41:15;65.50;;;32.60;;
5460;SDS011;2753;49.196;8.286;2022-12-20T00:43:42;61.73;;;32.10;;
5460;SDS011;2753;49.196;8.286;2022-12-20T00:46:09;71.87;;;32.63;;
5460;SDS011;2753;49.196;8.286;2022-12-20T00:48:37;82.40;;;36.77;;
5460;SDS011;2753;49.196;8.286;2022-12-20T00:51:04;82.70;;;36.47;;
5460;SDS011;2753;49.196;8.286;2022-12-20T00:53:32;104.03;;;41.63;;
5460;SDS011;2753;49.196;8.286;2022-12-20T00:55:58;137.97;;;44.70;;
5460;SDS011;2753;49.196;8.286;2022-12-20T00:58:24;115.43;;;44.07;;
5460;SDS011;2753;49.196;8.286;2022-12-20T01:00:51;89.07;;;39.37;;
5460;SDS011;2753;49.196;8.286;2022-12-20T01:03:17;83.20;;;35.90;;
5460;SDS011;2753;49.196;8.286;2022-12-20T01:05:49;119.23;;;48.00;;
5460;SDS011;2753;49.196;8.286;2022-12-20T01:08:19;81.80;;;34.77;;
5460;SDS011;2753;49.196;8.286;2022-12-20T01:10:46;80.77;;;36.77;;
5460;SDS011;2753;49.196;8.286;2022-12-20T01:13:22;73.70;;;34.60;;
5460;SDS011;2753;49.196;8.286;2022-12-20T01:15:47;83.70;;;33.10;;
5460;SDS011;2753;49.196;8.286;2022-12-20T01:18:13;86.03;;;35.27;;
5460;SDS011;2753;49.196;8.286;2022-12-20T01:20:39;75.07;;;35.57;;
5460;SDS011;2753;49.196;8.286;2022-12-20T01:23:04;70.93;;;32.50;;
5460;SDS011;2753;49.196;8.286;2022-12-20T01:25:30;79.47;;;34.80;;
5460;SDS011;2753;49.196;8.286;2022-12-20T01:27:56;67.77;;;32.00;;
5460;SDS011;2753;49.196;8.286;2022-12-20T01:30:21;63.17;;;30.67;;
5460;SDS011;2753;49.196;8.286;2022-12-20T01:32:47;78.30;;;33.47;;
5460;SDS011;2753;49.196;8.286;2022-12-20T01:35:12;71.57;;;32.00;;
5460;SDS011;2753;49.196;8.286;2022-12-20T01:37:38;75.80;;;32.03;;
5460;SDS011;2753;49.196;8.286;2022-12-20T01:40:04;141.47;;;49.50;;
5460;SDS011;2753;49.196;8.286;2022-12-20T01:42:30;68.70;;;30.90;;
5460;SDS011;2753;49.196;8.286;2022-12-20T01:44:57;85.83;;;37.80;;
5460;SDS011;2753;49.196;8.286;2022-12-20T01:47:23;59.77;;;26.80;;
5460;SDS011;2753;49.196;8.286;2022-12-20T01:49:50;95.63;;;37.97;;
5460;SDS011;2753;49.196;8.286;2022-12-20T01:52:23;75.10;;;31.70;;
5460;SDS011;2753;49.196;8.286;2022-12-20T01:55:02;56.10;;;28.20;;
5460;SDS011;2753;49.196;8.286;2022-12-20T01:57:36;51.70;;;27.97;;
5460;SDS011;2753;49.196;8.286;2022-12-20T02:00:03;58.67;;;28.10;;
5460;SDS011;2753;49.196;8.286;2022-12-20T02:02:30;57.77;;;27.13;;
5460;SDS011;2753;49.196;8.286;2022-12-20T02:04:57;55.17;;;27.07;;
5460;SDS011;2753;49.196;8.286;2022-12-20T02:07:23;57.97;;;26.80;;
5460;SDS011;2753;49.196;8.286;2022-12-20T02:09:52;60.33;;;24.20;;
5460;SDS011;2753;49.196;8.286;2022-12-20T02:12:21;56.77;;;23.00;;
5460;SDS011;2753;49.196;8.286;2022-12-20T02:31:36;52.43;;;23.97;;
5460;SDS011;2753;49.196;8.286;2022-12-20T02:34:06;50.27;;;22.77;;
5460;SDS011;2753;49.196;8.286;2022-12-20T02:36:32;46.83;;;23.10;;
5460;SDS011;2753;49.196;8.286;2022-12-20T02:38:58;59.23;;;25.37;;
5460;SDS011;2753;49.196;8.286;2022-12-20T02:41:25;41.60;;;21.70;;
5460;SDS011;2753;49.196;8.286;2022-12-20T02:44:03;49.37;;;23.87;;
5460;SDS011;2753;49.196;8.286;2022-12-20T02:46:52;50.83;;;23.83;;
5460;SDS011;2753;49.196;8.286;2022-12-20T02:49:22;52.23;;;25.93;;
5460;SDS011;2753;49.196;8.286;2022-12-20T02:51:54;52.17;;;24.83;;
5460;SDS011;2753;49.196;8.286;2022-12-20T02:54:21;53.23;;;24.43;;
5460;SDS011;2753;49.196;8.286;2022-12-20T02:56:53;56.43;;;25.97;;
5460;SDS011;2753;49.196;8.286;2022-12-20T02:59:37;56.30;;;26.07;;
5460;SDS011;2753;49.196;8.286;2022-12-20T03:02:07;84.00;;;33.97;;
5460;SDS011;2753;49.196;8.286;2022-12-20T03:04:35;63.87;;;28.90;;
5460;SDS011;2753;49.196;8.286;2022-12-20T03:07:05;68.87;;;28.70;;
5460;SDS011;2753;49.196;8.286;2022-12-20T03:09:35;65.13;;;28.13;;
5460;SDS011;2753;49.196;8.286;2022-12-20T03:12:03;73.10;;;28.77;;
5460;SDS011;2753;49.196;8.286;2022-12-20T03:14:30;57.80;;;26.57;;
5460;SDS011;2753;49.196;8.286;2022-12-20T03:16:56;55.83;;;28.00;;
5460;SDS011;2753;49.196;8.286;2022-12-20T03:19:22;56.87;;;26.17;;
5460;SDS011;2753;49.196;8.286;2022-12-20T03:21:48;60.60;;;31.40;;
5460;SDS011;2753;49.196;8.286;2022-12-20T03:24:14;61.40;;;27.93;;
5460;SDS011;2753;49.196;8.286;2022-12-20T03:26:40;61.60;;;29.57;;
5460;SDS011;2753;49.196;8.286;2022-12-20T03:29:07;64.13;;;28.50;;
5460;SDS011;2753;49.196;8.286;2022-12-20T03:31:33;59.37;;;28.50;;
5460;SDS011;2753;49.196;8.286;2022-12-20T03:34:00;53.00;;;26.17;;
5460;SDS011;2753;49.196;8.286;2022-12-20T03:36:26;53.47;;;25.77;;
5460;SDS011;2753;49.196;8.286;2022-12-20T03:38:52;53.23;;;27.37;;
5460;SDS011;2753;49.196;8.286;2022-12-20T03:41:18;59.03;;;25.50;;
5460;SDS011;2753;49.196;8.286;2022-12-20T03:43:46;57.13;;;27.10;;
5460;SDS011;2753;49.196;8.286;2022-12-20T03:46:12;55.27;;;26.97;;
5460;SDS011;2753;49.196;8.286;2022-12-20T03:48:39;60.13;;;26.83;;
5460;SDS011;2753;49.196;8.286;2022-12-20T03:51:05;54.43;;;26.77;;
5460;SDS011;2753;49.196;8.286;2022-12-20T03:53:31;51.37;;;27.43;;
5460;SDS011;2753;49.196;8.286;2022-12-20T03:55:57;51.73;;;24.80;;
5460;SDS011;2753;49.196;8.286;2022-12-20T03:58:23;50.37;;;26.57;;
5460;SDS011;2753;49.196;8.286;2022-12-20T04:00:48;51.33;;;25.37;;
5460;SDS011;2753;49.196;8.286;2022-12-20T04:03:14;50.30;;;25.93;;
5460;SDS011;2753;49.196;8.286;2022-12-20T04:05:39;54.83;;;27.77;;
5460;SDS011;2753;49.196;8.286;2022-12-20T04:08:06;56.33;;;27.80;;
5460;SDS011;2753;49.196;8.286;2022-12-20T04:10:31;76.57;;;33.57;;
5460;SDS011;2753;49.196;8.286;2022-12-20T04:13:17;55.80;;;26.40;;
5460;SDS011;2753;49.196;8.286;2022-12-20T04:15:43;59.13;;;26.47;;
5460;SDS011;2753;49.196;8.286;2022-12-20T04:18:08;60.47;;;29.00;;
5460;SDS011;2753;49.196;8.286;2022-12-20T04:20:34;64.10;;;30.90;;
5460;SDS011;2753;49.196;8.286;2022-12-20T04:23:00;55.43;;;26.90;;
5460;SDS011;2753;49.196;8.286;2022-12-20T04:25:26;49.43;;;26.80;;
5460;SDS011;2753;49.196;8.286;2022-12-20T04:27:51;67.23;;;31.00;;
5460;SDS011;2753;49.196;8.286;2022-12-20T04:30:17;79.10;;;31.27;;
5460;SDS011;2753;49.196;8.286;2022-12-20T04:32:43;58.10;;;30.80;;
5460;SDS011;2753;49.196;8.286;2022-12-20T04:35:08;65.60;;;29.23;;
5460;SDS011;2753;49.196;8.286;2022-12-20T04:37:34;65.77;;;29.93;;
5460;SDS011;2753;49.196;8.286;2022-12-20T04:40:00;61.60;;;29.37;;
5460;SDS011;2753;49.196;8.286;2022-12-20T04:42:26;60.20;;;30.00;;
5460;SDS011;2753;49.196;8.286;2022-12-20T04:44:51;57.87;;;28.23;;
5460;SDS011;2753;49.196;8.286;2022-12-20T04:47:17;64.70;;;27.83;;
5460;SDS011;2753;49.196;8.286;2022-12-20T04:49:43;50.23;;;25.23;;
5460;SDS011;2753;49.196;8.286;2022-12-20T04:52:08;52.93;;;27.90;;
5460;SDS011;2753;49.196;8.286;2022-12-20T04:54:52;52.83;;;26.50;;
5460;SDS011;2753;49.196;8.286;2022-12-20T04:57:18;63.10;;;27.60;;
5460;SDS011;2753;49.196;8.286;2022-12-20T04:59:44;49.43;;;25.97;;
5460;SDS011;2753;49.196;8.286;2022-12-20T05:02:09;52.70;;;28.27;;
5460;SDS011;2753;49.196;8.286;2022-12-20T05:04:35;69.10;;;30.60;;
5460;SDS011;2753;49.196;8.286;2022-12-20T05:07:01;65.63;;;28.73;;
5460;SDS011;2753;49.196;8.286;2022-12-20T05:09:27;57.83;;;28.57;;
5460;SDS011;2753;49.196;8.286;2022-12-20T05:11:52;50.60;;;27.37;;
5460;SDS011;2753;49.196;8.286;2022-12-20T05:14:18;56.30;;;24.90;;
5460;SDS011;2753;49.196;8.286;2022-12-20T05:16:44;66.30;;;30.97;;
5460;SDS011;2753;49.196;8.286;2022-12-20T05:19:09;71.80;;;32.53;;
5460;SDS011;2753;49.196;8.286;2022-12-20T05:21:35;64.73;;;30.80;;
5460;SDS011;2753;49.196;8.286;2022-12-20T05:24:19;62.33;;;29.87;;
5460;SDS011;2753;49.196;8.286;2022-12-20T05:27:03;53.00;;;28.03;;
5460;SDS011;2753;49.196;8.286;2022-12-20T05:29:29;72.27;;;31.97;;
5460;SDS011;2753;49.196;8.286;2022-12-20T05:31:54;71.77;;;32.83;;
5460;SDS011;2753;49.196;8.286;2022-12-20T05:34:20;67.60;;;31.87;;
5460;SDS011;2753;49.196;8.286;2022-12-20T05:36:46;59.73;;;31.00;;
5460;SDS011;2753;49.196;8.286;2022-12-20T05:39:13;65.07;;;30.17;;
5460;SDS011;2753;49.196;8.286;2022-12-20T05:41:38;63.70;;;32.47;;
5460;SDS011;2753;49.196;8.286;2022-12-20T05:44:05;59.17;;;31.07;;
5460;SDS011;2753;49.196;8.286;2022-12-20T05:46:31;63.73;;;33.23;;
5460;SDS011;2753;49.196;8.286;2022-12-20T05:48:57;65.93;;;29.27;;
5460;SDS011;2753;49.196;8.286;2022-12-20T05:51:23;71.67;;;36.07;;
5460;SDS011;2753;49.196;8.286;2022-12-20T05:53:48;65.30;;;30.47;;
5460;SDS011;2753;49.196;8.286;2022-12-20T05:56:14;57.13;;;30.33;;
5460;SDS011;2753;49.196;8.286;2022-12-20T05:58:40;65.20;;;33.07;;
5460;SDS011;2753;49.196;8.286;2022-12-20T06:03:41;60.77;;;31.77;;
5460;SDS011;2753;49.196;8.286;2022-12-20T06:06:07;63.10;;;28.87;;
5460;SDS011;2753;49.196;8.286;2022-12-20T06:08:33;67.60;;;32.33;;
5460;SDS011;2753;49.196;8.286;2022-12-20T06:10:59;47.70;;;26.83;;
5460;SDS011;2753;49.196;8.286;2022-12-20T06:13:28;49.80;;;28.77;;
5460;SDS011;2753;49.196;8.286;2022-12-20T06:15:54;54.20;;;27.97;;
5460;SDS011;2753;49.196;8.286;2022-12-20T06:18:20;53.53;;;28.93;;
5460;SDS011;2753;49.196;8.286;2022-12-20T06:20:50;61.00;;;29.27;;
5460;SDS011;2753;49.196;8.286;2022-12-20T06:23:16;76.10;;;35.20;;
5460;SDS011;2753;49.196;8.286;2022-12-20T06:25:42;70.93;;;33.60;;
5460;SDS011;2753;49.196;8.286;2022-12-20T06:28:08;69.03;;;36.00;;
5460;SDS011;2753;49.196;8.286;2022-12-20T06:30:34;57.73;;;27.40;;
5460;SDS011;2753;49.196;8.286;2022-12-20T06:33:01;58.43;;;27.17;;
5460;SDS011;2753;49.196;8.286;2022-12-20T06:35:28;55.97;;;27.33;;
5460;SDS011;2753;49.196;8.286;2022-12-20T06:37:54;57.73;;;29.60;;
5460;SDS011;2753;49.196;8.286;2022-12-20T06:40:20;48.10;;;25.10;;
5460;SDS011;2753;49.196;8.286;2022-12-20T06:42:46;47.70;;;24.03;;
5460;SDS011;2753;49.196;8.286;2022-12-20T06:45:12;48.80;;;24.80;;
5460;SDS011;2753;49.196;8.286;2022-12-20T06:47:37;51.67;;;23.60;;
5460;SDS011;2753;49.196;8.286;2022-12-20T06:50:04;45.80;;;24.27;;
5460;SDS011;2753;49.196;8.286;2022-12-20T06:52:31;44.37;;;22.40;;
5460;SDS011;2753;49.196;8.286;2022-12-20T06:54:57;49.87;;;23.73;;
5460;SDS011;2753;49.196;8.286;2022-12-20T06:57:22;43.47;;;23.40;;
5460;SDS011;2753;49.196;8.286;2022-12-20T06:59:48;40.90;;;22.40;;
5460;SDS011;2753;49.196;8.286;2022-12-20T07:02:14;52.47;;;24.27;;
5460;SDS011;2753;49.196;8.286;2022-12-20T07:04:40;48.80;;;24.87;;
5460;SDS011;2753;49.196;8.286;2022-12-20T07:07:06;49.17;;;25.20;;
5460;SDS011;2753;49.196;8.286;2022-12-20T07:09:32;53.60;;;23.87;;
5460;SDS011;2753;49.196;8.286;2022-12-20T07:11:58;63.27;;;29.80;;
5460;SDS011;2753;49.196;8.286;2022-12-20T07:14:24;62.70;;;29.57;;
5460;SDS011;2753;49.196;8.286;2022-12-20T07:16:50;57.03;;;29.10;;
5460;SDS011;2753;49.196;8.286;2022-12-20T07:19:16;73.73;;;32.83;;
5460;SDS011;2753;49.196;8.286;2022-12-20T07:21:42;45.67;;;25.07;;
5460;SDS011;2753;49.196;8.286;2022-12-20T07:24:08;52.67;;;26.30;;
5460;SDS011;2753;49.196;8.286;2022-12-20T07:26:34;54.97;;;27.27;;
5460;SDS011;2753;49.196;8.286;2022-12-20T07:29:00;64.93;;;30.10;;
5460;SDS011;2753;49.196;8.286;2022-12-20T07:31:25;50.40;;;26.33;;
5460;SDS011;2753;49.196;8.286;2022-12-20T07:33:52;63.77;;;29.10;;
5460;SDS011;2753;49.196;8.286;2022-12-20T07:36:18;56.80;;;28.27;;
5460;SDS011;2753;49.196;8.286;2022-12-20T07:38:43;64.20;;;30.80;;
5460;SDS011;2753;49.196;8.286;2022-12-20T07:41:11;69.90;;;29.20;;
5460;SDS011;2753;49.196;8.286;2022-12-20T07:43:39;61.27;;;28.67;;
5460;SDS011;2753;49.196;8.286;2022-12-20T07:46:05;55.00;;;29.07;;
5460;SDS011;2753;49.196;8.286;2022-12-20T07:51:56;50.93;;;25.60;;
5460;SDS011;2753;49.196;8.286;2022-12-20T07:54:27;68.00;;;28.07;;
5460;SDS011;2753;49.196;8.286;2022-12-20T07:56:58;55.13;;;29.50;;
5460;SDS011;2753;49.196;8.286;2022-12-20T07:59:34;51.77;;;26.83;;
5460;SDS011;2753;49.196;8.286;2022-12-20T08:02:08;45.50;;;24.10;;
5460;SDS011;2753;49.196;8.286;2022-12-20T08:04:39;46.77;;;26.00;;
5460;SDS011;2753;49.196;8.286;2022-12-20T08:07:06;47.30;;;24.47;;
5460;SDS011;2753;49.196;8.286;2022-12-20T08:09:37;44.43;;;24.97;;
5460;SDS011;2753;49.196;8.286;2022-12-20T08:12:36;48.20;;;23.80;;
5460;SDS011;2753;49.196;8.286;2022-12-20T08:15:04;44.43;;;22.93;;
5460;SDS011;2753;49.196;8.286;2022-12-20T08:17:31;41.83;;;23.50;;
5460;SDS011;2753;49.196;8.286;2022-12-20T08:19:59;42.90;;;23.80;;
5460;SDS011;2753;49.196;8.286;2022-12-20T08:22:32;50.40;;;23.63;;
5460;SDS011;2753;49.196;8.286;2022-12-20T08:24:59;64.13;;;24.07;;
5460;SDS011;2753;49.196;8.286;2022-12-20T08:27:25;39.70;;;22.90;;
5460;SDS011;2753;49.196;8.286;2022-12-20T08:29:52;42.47;;;23.03;;
5460;SDS011;2753;49.196;8.286;2022-12-20T08:32:34;49.57;;;23.80;;
5460;SDS011;2753;49.196;8.286;2022-12-20T08:36:00;58.80;;;27.90;;
5460;SDS011;2753;49.196;8.286;2022-12-20T08:39:34;47.43;;;23.17;;
5460;SDS011;2753;49.196;8.286;2022-12-20T08:43:05;45.90;;;21.13;;
5460;SDS011;2753;49.196;8.286;2022-12-20T08:46:02;46.00;;;23.10;;
5460;SDS011;2753;49.196;8.286;2022-12-20T08:48:41;44.13;;;21.97;;
5460;SDS011;2753;49.196;8.286;2022-12-20T08:51:35;43.13;;;22.30;;
5460;SDS011;2753;49.196;8.286;2022-12-20T08:54:01;38.50;;;20.80;;
5460;SDS011;2753;49.196;8.286;2022-12-20T08:56:27;44.83;;;24.30;;
5460;SDS011;2753;49.196;8.286;2022-12-20T08:58:53;49.40;;;25.70;;
5460;SDS011;2753;49.196;8.286;2022-12-20T09:01:19;65.50;;;28.70;;
5460;SDS011;2753;49.196;8.286;2022-12-20T09:03:48;74.67;;;31.20;;
5460;SDS011;2753;49.196;8.286;2022-12-20T09:06:15;44.40;;;21.10;;
5460;SDS011;2753;49.196;8.286;2022-12-20T09:08:42;55.50;;;23.13;;
5460;SDS011;2753;49.196;8.286;2022-12-20T09:11:10;49.10;;;26.17;;
5460;SDS011;2753;49.196;8.286;2022-12-20T09:13:38;48.20;;;25.00;;
5460;SDS011;2753;49.196;8.286;2022-12-20T09:16:05;43.70;;;22.20;;
5460;SDS011;2753;49.196;8.286;2022-12-20T09:18:32;41.83;;;24.33;;
5460;SDS011;2753;49.196;8.286;2022-12-20T09:20:58;57.13;;;28.93;;
5460;SDS011;2753;49.196;8.286;2022-12-20T09:23:25;72.30;;;35.20;;
5460;SDS011;2753;49.196;8.286;2022-12-20T09:25:51;41.70;;;22.90;;
5460;SDS011;2753;49.196;8.286;2022-12-20T09:28:17;48.20;;;22.50;;
5460;SDS011;2753;49.196;8.286;2022-12-20T09:30:44;35.57;;;19.90;;
5460;SDS011;2753;49.196;8.286;2022-12-20T09:33:10;35.93;;;22.97;;
5460;SDS011;2753;49.196;8.286;2022-12-20T09:35:35;51.00;;;26.03;;
5460;SDS011;2753;49.196;8.286;2022-12-20T09:38:01;37.53;;;20.10;;
5460;SDS011;2753;49.196;8.286;2022-12-20T09:40:28;49.50;;;23.70;;
5460;SDS011;2753;49.196;8.286;2022-12-20T09:42:56;44.17;;;23.57;;
5460;SDS011;2753;49.196;8.286;2022-12-20T09:45:35;36.03;;;20.17;;
5460;SDS011;2753;49.196;8.286;2022-12-20T09:48:02;39.00;;;22.70;;
5460;SDS011;2753;49.196;8.286;2022-12-20T09:59:00;39.27;;;18.83;;
5460;SDS011;2753;49.196;8.286;2022-12-20T10:01:30;42.20;;;21.77;;
5460;SDS011;2753;49.196;8.286;2022-12-20T10:03:59;45.20;;;22.20;;
5460;SDS011;2753;49.196;8.286;2022-12-20T10:09:05;42.40;;;21.83;;
5460;SDS011;2753;49.196;8.286;2022-12-20T10:25:32;31.57;;;18.97;;
5460;SDS011;2753;49.196;8.286;2022-12-20T10:27:59;43.67;;;18.83;;
5460;SDS011;2753;49.196;8.286;2022-12-20T10:30:33;40.57;;;18.53;;
5460;SDS011;2753;49.196;8.286;2022-12-20T10:32:59;38.87;;;17.80;;
5460;SDS011;2753;49.196;8.286;2022-12-20T10:38:02;31.07;;;18.70;;
5460;SDS011;2753;49.196;8.286;2022-12-20T10:43:00;31.17;;;17.50;;
5460;SDS011;2753;49.196;8.286;2022-12-20T10:47:58;43.03;;;21.87;;
5460;SDS011;2753;49.196;8.286;2022-12-20T10:50:25;40.60;;;19.20;;
5460;SDS011;2753;49.196;8.286;2022-12-20T10:55:42;34.27;;;19.50;;
5460;SDS011;2753;49.196;8.286;2022-12-20T10:58:20;31.67;;;19.40;;
5460;SDS011;2753;49.196;8.286;2022-12-20T11:01:02;33.90;;;18.23;;
5460;SDS011;2753;49.196;8.286;2022-12-20T11:03:28;32.50;;;20.07;;
5460;SDS011;2753;49.196;8.286;2022-12-20T11:06:02;39.27;;;19.50;;
5460;SDS011;2753;49.196;8.286;2022-12-20T11:08:29;33.50;;;19.50;;
5460;SDS011;2753;49.196;8.286;2022-12-20T11:11:09;41.60;;;19.73;;
5460;SDS011;2753;49.196;8.286;2022-12-20T11:13:37;40.53;;;18.67;;
5460;SDS011;2753;49.196;8.286;2022-12-20T11:16:03;34.40;;;19.43;;
5460;SDS011;2753;49.196;8.286;2022-12-20T11:23:46;39.30;;;20.07;;
5460;SDS011;2753;49.196;8.286;2022-12-20T11:40:05;41.17;;;21.67;;
5460;SDS011;2753;49.196;8.286;2022-12-20T11:45:58;38.13;;;21.70;;
5460;SDS011;2753;49.196;8.286;2022-12-20T11:56:37;36.23;;;19.20;;
5460;SDS011;2753;49.196;8.286;2022-12-20T12:02:00;41.83;;;21.07;;
5460;SDS011;2753;49.196;8.286;2022-12-20T12:04:35;33.30;;;20.40;;
5460;SDS011;2753;49.196;8.286;2022-12-20T12:07:21;37.93;;;19.23;;
5460;SDS011;2753;49.196;8.286;2022-12-20T12:10:03;33.20;;;19.83;;
5460;SDS011;2753;49.196;8.286;2022-12-20T12:12:32;45.50;;;19.67;;
5460;SDS011;2753;49.196;8.286;2022-12-20T12:20:51;44.23;;;21.93;;
5460;SDS011;2753;49.196;8.286;2022-12-20T12:26:12;42.23;;;23.03;;
5460;SDS011;2753;49.196;8.286;2022-12-20T12:28:53;43.63;;;25.00;;
5460;SDS011;2753;49.196;8.286;2022-12-20T12:31:22;52.80;;;24.53;;
5460;SDS011;2753;49.196;8.286;2022-12-20T12:42:19;38.00;;;19.37;;
5460;SDS011;2753;49.196;8.286;2022-12-20T12:45:08;35.67;;;21.57;;
5460;SDS011;2753;49.196;8.286;2022-12-20T12:50:39;39.00;;;21.90;;
5460;SDS011;2753;49.196;8.286;2022-12-20T12:53:52;42.97;;;21.23;;
5460;SDS011;2753;49.196;8.286;2022-12-20T12:55:54;39.17;;;21.60;;
5460;SDS011;2753;49.196;8.286;2022-12-20T13:00:50;38.53;;;19.20;;
5460;SDS011;2753;49.196;8.286;2022-12-20T13:03:35;40.23;;;20.90;;
5460;SDS011;2753;49.196;8.286;2022-12-20T13:11:35;33.53;;;20.00;;
5460;SDS011;2753;49.196;8.286;2022-12-20T13:16:47;39.60;;;22.33;;
5460;SDS011;2753;49.196;8.286;2022-12-20T13:19:34;33.80;;;20.33;;
5460;SDS011;2753;49.196;8.286;2022-12-20T13:24:38;42.10;;;23.30;;
5460;SDS011;2753;49.196;8.286;2022-12-20T13:27:23;44.13;;;24.27;;
5460;SDS011;2753;49.196;8.286;2022-12-20T13:43:14;37.67;;;20.00;;
5460;SDS011;2753;49.196;8.286;2022-12-20T13:48:29;42.57;;;19.90;;
5460;SDS011;2753;49.196;8.286;2022-12-20T13:50:59;39.30;;;21.27;;
5460;SDS011;2753;49.196;8.286;2022-12-20T13:53:26;37.40;;;20.63;;
5460;SDS011;2753;49.196;8.286;2022-12-20T13:55:52;38.23;;;19.00;;
5460;SDS011;2753;49.196;8.286;2022-12-20T13:58:20;31.97;;;17.10;;
5460;SDS011;2753;49.196;8.286;2022-12-20T14:00:47;36.47;;;17.23;;
5460;SDS011;2753;49.196;8.286;2022-12-20T14:03:28;39.57;;;21.27;;
5460;SDS011;2753;49.196;8.286;2022-12-20T14:05:56;39.17;;;22.30;;
5460;SDS011;2753;49.196;8.286;2022-12-20T14:08:33;45.20;;;21.33;;
5460;SDS011;2753;49.196;8.286;2022-12-20T14:11:14;35.57;;;20.70;;
5460;SDS011;2753;49.196;8.286;2022-12-20T14:13:53;42.90;;;22.43;;
5460;SDS011;2753;49.196;8.286;2022-12-20T14:16:30;41.53;;;23.23;;
5460;SDS011;2753;49.196;8.286;2022-12-20T14:19:00;40.77;;;20.67;;
5460;SDS011;2753;49.196;8.286;2022-12-20T14:21:29;39.27;;;21.73;;
5460;SDS011;2753;49.196;8.286;2022-12-20T14:23:56;36.90;;;23.10;;
5460;SDS011;2753;49.196;8.286;2022-12-20T14:26:26;46.77;;;26.53;;
5460;SDS011;2753;49.196;8.286;2022-12-20T14:28:54;50.47;;;25.50;;
5460;SDS011;2753;49.196;8.286;2022-12-20T14:34:00;52.83;;;26.07;;
5460;SDS011;2753;49.196;8.286;2022-12-20T14:36:47;40.23;;;21.57;;
5460;SDS011;2753;49.196;8.286;2022-12-20T14:39:30;68.23;;;30.80;;
5460;SDS011;2753;49.196;8.286;2022-12-20T14:42:04;48.97;;;25.80;;
5460;SDS011;2753;49.196;8.286;2022-12-20T14:44:37;41.83;;;22.83;;
5460;SDS011;2753;49.196;8.286;2022-12-20T14:47:24;40.53;;;21.30;;
5460;SDS011;2753;49.196;8.286;2022-12-20T14:49:53;56.50;;;25.93;;
5460;SDS011;2753;49.196;8.286;2022-12-20T14:57:48;41.43;;;22.80;;
5460;SDS011;2753;49.196;8.286;2022-12-20T15:05:46;35.20;;;19.00;;
5460;SDS011;2753;49.196;8.286;2022-12-20T15:11:03;35.10;;;20.60;;
5460;SDS011;2753;49.196;8.286;2022-12-20T15:13:33;38.67;;;20.83;;
5460;SDS011;2753;49.196;8.286;2022-12-20T15:16:02;45.33;;;22.80;;
5460;SDS011;2753;49.196;8.286;2022-12-20T15:18:30;38.00;;;20.23;;
5460;SDS011;2753;49.196;8.286;2022-12-20T15:21:00;46.83;;;21.13;;
5460;SDS011;2753;49.196;8.286;2022-12-20T15:23:50;51.80;;;26.40;;
5460;SDS011;2753;49.196;8.286;2022-12-20T15:26:20;41.97;;;21.20;;
5460;SDS011;2753;49.196;8.286;2022-12-20T15:28:48;36.23;;;21.13;;
5460;SDS011;2753;49.196;8.286;2022-12-20T15:31:18;38.63;;;21.40;;
5460;SDS011;2753;49.196;8.286;2022-12-20T15:33:45;45.33;;;22.80;;
5460;SDS011;2753;49.196;8.286;2022-12-20T15:36:15;43.93;;;23.47;;
5460;SDS011;2753;49.196;8.286;2022-12-20T15:38:43;47.13;;;22.90;;
5460;SDS011;2753;49.196;8.286;2022-12-20T15:41:30;45.23;;;21.70;;
5460;SDS011;2753;49.196;8.286;2022-12-20T15:43:59;36.03;;;20.83;;
5460;SDS011;2753;49.196;8.286;2022-12-20T15:46:29;37.47;;;20.80;;
5460;SDS011;2753;49.196;8.286;2022-12-20T15:48:56;50.80;;;21.70;;
5460;SDS011;2753;49.196;8.286;2022-12-20T15:53:58;61.60;;;30.90;;
5460;SDS011;2753;49.196;8.286;2022-12-20T15:56:25;81.77;;;39.17;;
5460;SDS011;2753;49.196;8.286;2022-12-20T15:58:53;71.33;;;34.30;;
5460;SDS011;2753;49.196;8.286;2022-12-20T16:01:20;78.30;;;35.77;;
5460;SDS011;2753;49.196;8.286;2022-12-20T16:03:51;55.60;;;24.30;;
5460;SDS011;2753;49.196;8.286;2022-12-20T16:06:16;84.13;;;38.70;;
5460;SDS011;2753;49.196;8.286;2022-12-20T16:08:42;134.33;;;52.33;;
5460;SDS011;2753;49.196;8.286;2022-12-20T16:11:21;57.43;;;29.30;;
5460;SDS011;2753;49.196;8.286;2022-12-20T16:13:52;70.73;;;34.43;;
5460;SDS011;2753;49.196;8.286;2022-12-20T16:16:20;96.73;;;41.70;;
5460;SDS011;2753;49.196;8.286;2022-12-20T16:18:47;89.37;;;36.40;;
5460;SDS011;2753;49.196;8.286;2022-12-20T16:21:14;94.37;;;41.50;;
5460;SDS011;2753;49.196;8.286;2022-12-20T16:23:51;147.50;;;52.27;;
5460;SDS011;2753;49.196;8.286;2022-12-20T16:26:18;113.43;;;42.90;;
5460;SDS011;2753;49.196;8.286;2022-12-20T16:28:45;132.23;;;44.27;;
5460;SDS011;2753;49.196;8.286;2022-12-20T16:31:28;92.97;;;40.13;;
5460;SDS011;2753;49.196;8.286;2022-12-20T16:33:59;90.50;;;36.63;;
5460;SDS011;2753;49.196;8.286;2022-12-20T16:36:27;73.03;;;33.07;;
5460;SDS011;2753;49.196;8.286;2022-12-20T16:38:53;79.63;;;34.90;;
5460;SDS011;2753;49.196;8.286;2022-12-20T16:43:48;62.23;;;31.20;;
5460;SDS011;2753;49.196;8.286;2022-12-20T16:46:16;52.13;;;26.63;;
5460;SDS011;2753;49.196;8.286;2022-12-20T16:48:43;60.90;;;32.83;;
5460;SDS011;2753;49.196;8.286;2022-12-20T16:56:25;71.87;;;34.50;;
5460;SDS011;2753;49.196;8.286;2022-12-20T16:58:51;85.43;;;38.80;;
5460;SDS011;2753;49.196;8.286;2022-12-20T17:01:18;62.47;;;31.23;;
5460;SDS011;2753;49.196;8.286;2022-12-20T17:03:47;63.80;;;31.97;;
5460;SDS011;2753;49.196;8.286;2022-12-20T17:06:14;60.17;;;32.53;;
5460;SDS011;2753;49.196;8.286;2022-12-20T17:08:42;73.07;;;34.93;;
5460;SDS011;2753;49.196;8.286;2022-12-20T17:11:30;63.20;;;30.00;;
5460;SDS011;2753;49.196;8.286;2022-12-20T17:13:55;77.60;;;37.10;;
5460;SDS011;2753;49.196;8.286;2022-12-20T17:16:22;49.70;;;26.57;;
5460;SDS011;2753;49.196;8.286;2022-12-20T17:18:51;49.40;;;26.33;;
5460;SDS011;2753;49.196;8.286;2022-12-20T17:23:50;47.90;;;23.90;;
5460;SDS011;2753;49.196;8.286;2022-12-20T17:26:21;71.33;;;37.50;;
5460;SDS011;2753;49.196;8.286;2022-12-20T17:28:50;45.77;;;21.43;;
5460;SDS011;2753;49.196;8.286;2022-12-20T17:31:23;84.60;;;39.07;;
5460;SDS011;2753;49.196;8.286;2022-12-20T17:33:53;45.53;;;23.93;;
5460;SDS011;2753;49.196;8.286;2022-12-20T17:36:20;31.73;;;17.07;;
5460;SDS011;2753;49.196;8.286;2022-12-20T17:38:46;37.77;;;21.07;;
5460;SDS011;2753;49.196;8.286;2022-12-20T17:43:48;57.07;;;25.40;;
5460;SDS011;2753;49.196;8.286;2022-12-20T17:46:14;50.03;;;26.23;;
5460;SDS011;2753;49.196;8.286;2022-12-20T17:48:40;39.43;;;22.23;;
5460;SDS011;2753;49.196;8.286;2022-12-20T17:51:16;38.87;;;23.00;;
5460;SDS011;2753;49.196;8.286;2022-12-20T17:53:47;54.80;;;23.83;;
5460;SDS011;2753;49.196;8.286;2022-12-20T17:56:15;47.70;;;22.37;;